sensor_id;sensor_type;location;lat;lon;timestamp;pressure;altitude;pressure_sealevel;temperature;humidity
42169;BME280;27838;43.858;25.974;2023-07-08T00:01:11;100968.34;;;26.06;56.76
42169;BME280;27838;43.858;25.974;2023-07-08T00:03:38;100945.72;;;25.97;57.10
42169;BME280;27838;43.858;25.974;2023-07-08T00:06:04;100969.28;;;26.05;56.70
42169;BME280;27838;43.858;25.974;2023-07-08T00:08:31;100960.41;;;26.04;57.01
42169;BME280;27838;43.858;25.974;2023-07-08T00:10:57;100971.78;;;26.08;56.98
42169;BME280;27838;43.858;25.974;2023-07-08T00:13:24;100965.47;;;26.09;56.71
42169;BME280;27838;43.858;25.974;2023-07-08T00:15:50;100971.09;;;26.04;56.96
42169;BME280;27838;43.858;25.974;2023-07-08T00:18:17;100964.22;;;26.00;57.18
42169;BME280;27838;43.858;25.974;2023-07-08T00:20:49;100966.13;;;25.98;57.05
42169;BME280;27838;43.858;25.974;2023-07-08T00:23:17;100960.69;;;25.99;57.28
42169;BME280;27838;43.858;25.974;2023-07-08T00:25:46;100954.69;;;25.96;57.11
42169;BME280;27838;43.858;25.974;2023-07-08T00:28:16;100971.47;;;25.98;57.36
42169;BME280;27838;43.858;25.974;2023-07-08T00:30:43;100954.06;;;25.91;57.46
42169;BME280;27838;43.858;25.974;2023-07-08T00:33:10;100967.66;;;26.02;56.94
42169;BME280;27838;43.858;25.974;2023-07-08T00:35:37;100967.47;;;26.05;56.78
42169;BME280;27838;43.858;25.974;2023-07-08T00:40:57;100975.38;;;26.07;56.41
42169;BME280;27838;43.858;25.974;2023-07-08T00:43:34;100971.84;;;26.06;56.35
42169;BME280;27838;43.858;25.974;2023-07-08T00:51:26;100959.94;;;25.97;57.09
42169;BME280;27838;43.858;25.974;2023-07-08T00:53:53;100955.78;;;25.92;57.17
42169;BME280;27838;43.858;25.974;2023-07-08T00:56:33;100959.25;;;25.94;57.72
42169;BME280;27838;43.858;25.974;2023-07-08T00:59:05;100953.91;;;25.94;58.23
42169;BME280;27838;43.858;25.974;2023-07-08T01:01:36;100960.09;;;25.94;57.83
42169;BME280;27838;43.858;25.974;2023-07-08T01:04:08;100961.53;;;26.00;57.71
42169;BME280;27838;43.858;25.974;2023-07-08T01:06:39;100960.78;;;25.98;57.82
42169;BME280;27838;43.858;25.974;2023-07-08T01:09:10;100940.56;;;25.94;57.97
42169;BME280;27838;43.858;25.974;2023-07-08T01:11:40;100948.56;;;25.94;57.71
42169;BME280;27838;43.858;25.974;2023-07-08T01:14:09;100955.03;;;25.90;57.79
42169;BME280;27838;43.858;25.974;2023-07-08T01:16:37;100945.28;;;25.89;57.54
42169;BME280;27838;43.858;25.974;2023-07-08T01:19:04;100943.22;;;25.94;57.47
42169;BME280;27838;43.858;25.974;2023-07-08T01:21:38;100947.50;;;25.96;57.63
42169;BME280;27838;43.858;25.974;2023-07-08T01:24:09;100957.34;;;25.96;57.38
42169;BME280;27838;43.858;25.974;2023-07-08T01:26:40;100966.13;;;25.98;57.43
42169;BME280;27838;43.858;25.974;2023-07-08T01:29:09;100973.94;;;26.01;57.85
42169;BME280;27838;43.858;25.974;2023-07-08T01:31:36;100958.50;;;26.06;56.86
42169;BME280;27838;43.858;25.974;2023-07-08T01:34:04;100948.19;;;26.00;56.97
42169;BME280;27838;43.858;25.974;2023-07-08T01:36:36;100954.06;;;25.91;57.18
42169;BME280;27838;43.858;25.974;2023-07-08T01:39:03;100956.25;;;25.84;57.53
42169;BME280;27838;43.858;25.974;2023-07-08T01:41:30;100973.31;;;25.81;57.04
42169;BME280;27838;43.858;25.974;2023-07-08T01:43:56;100974.06;;;25.84;57.58
42169;BME280;27838;43.858;25.974;2023-07-08T01:46:24;100983.91;;;25.83;57.75
42169;BME280;27838;43.858;25.974;2023-07-08T01:48:54;100992.50;;;25.88;57.62
42169;BME280;27838;43.858;25.974;2023-07-08T01:51:24;100984.19;;;25.93;57.82
42169;BME280;27838;43.858;25.974;2023-07-08T01:53:51;100981.28;;;25.97;57.96
42169;BME280;27838;43.858;25.974;2023-07-08T01:56:18;100981.88;;;26.03;58.38
42169;BME280;27838;43.858;25.974;2023-07-08T01:58:44;100987.13;;;26.04;58.17
42169;BME280;27838;43.858;25.974;2023-07-08T02:01:11;100999.50;;;26.05;58.51
42169;BME280;27838;43.858;25.974;2023-07-08T02:03:37;100997.91;;;26.03;59.23
42169;BME280;27838;43.858;25.974;2023-07-08T02:06:05;100996.25;;;26.00;59.51
42169;BME280;27838;43.858;25.974;2023-07-08T02:08:31;100996.47;;;25.97;60.92
42169;BME280;27838;43.858;25.974;2023-07-08T02:10:58;101014.19;;;25.98;61.53
42169;BME280;27838;43.858;25.974;2023-07-08T02:13:25;101032.13;;;25.96;61.72
42169;BME280;27838;43.858;25.974;2023-07-08T02:15:52;101031.50;;;25.91;61.97
42169;BME280;27838;43.858;25.974;2023-07-08T02:18:18;101047.09;;;25.82;62.04
42169;BME280;27838;43.858;25.974;2023-07-08T02:20:46;101044.13;;;25.73;62.11
42169;BME280;27838;43.858;25.974;2023-07-08T02:23:13;101049.13;;;25.63;63.11
42169;BME280;27838;43.858;25.974;2023-07-08T02:25:40;101041.84;;;25.51;63.43
42169;BME280;27838;43.858;25.974;2023-07-08T02:28:07;101050.38;;;25.41;64.17
42169;BME280;27838;43.858;25.974;2023-07-08T02:30:34;101058.47;;;25.40;64.82
42169;BME280;27838;43.858;25.974;2023-07-08T02:33:02;101050.56;;;25.38;65.30
42169;BME280;27838;43.858;25.974;2023-07-08T02:35:29;101042.63;;;25.37;65.79
42169;BME280;27838;43.858;25.974;2023-07-08T02:37:57;101037.13;;;25.40;66.30
42169;BME280;27838;43.858;25.974;2023-07-08T02:40:25;101038.50;;;25.47;65.77
42169;BME280;27838;43.858;25.974;2023-07-08T02:42:51;101032.31;;;25.47;65.92
42169;BME280;27838;43.858;25.974;2023-07-08T02:45:18;101030.66;;;25.44;66.93
42169;BME280;27838;43.858;25.974;2023-07-08T02:47:45;101028.88;;;25.44;66.57
42169;BME280;27838;43.858;25.974;2023-07-08T02:50:12;101031.53;;;25.44;66.15
42169;BME280;27838;43.858;25.974;2023-07-08T02:52:39;101022.06;;;25.39;66.04
42169;BME280;27838;43.858;25.974;2023-07-08T02:55:06;101029.13;;;25.40;66.44
42169;BME280;27838;43.858;25.974;2023-07-08T02:57:33;101025.69;;;25.38;66.82
42169;BME280;27838;43.858;25.974;2023-07-08T02:59:59;101029.38;;;25.35;67.06
42169;BME280;27838;43.858;25.974;2023-07-08T03:02:26;101022.44;;;25.33;67.36
42169;BME280;27838;43.858;25.974;2023-07-08T03:04:53;101013.66;;;25.31;67.77
42169;BME280;27838;43.858;25.974;2023-07-08T03:07:20;101006.66;;;25.28;67.59
42169;BME280;27838;43.858;25.974;2023-07-08T03:09:46;101009.84;;;25.19;67.64
42169;BME280;27838;43.858;25.974;2023-07-08T03:12:13;101011.81;;;25.15;67.45
42169;BME280;27838;43.858;25.974;2023-07-08T03:14:39;101017.25;;;25.14;67.76
42169;BME280;27838;43.858;25.974;2023-07-08T03:17:06;101009.84;;;25.03;67.68
42169;BME280;27838;43.858;25.974;2023-07-08T03:19:32;101016.56;;;24.94;68.03
42169;BME280;27838;43.858;25.974;2023-07-08T03:21:59;101009.09;;;24.85;68.06
42169;BME280;27838;43.858;25.974;2023-07-08T03:24:28;101017.78;;;24.88;68.27
42169;BME280;27838;43.858;25.974;2023-07-08T03:26:55;101029.38;;;24.87;68.71
42169;BME280;27838;43.858;25.974;2023-07-08T03:29:22;101015.19;;;24.87;68.68
42169;BME280;27838;43.858;25.974;2023-07-08T03:31:49;101030.28;;;24.86;68.87
42169;BME280;27838;43.858;25.974;2023-07-08T03:34:17;101016.72;;;24.91;68.64
42169;BME280;27838;43.858;25.974;2023-07-08T03:36:49;101023.78;;;24.92;68.48
42169;BME280;27838;43.858;25.974;2023-07-08T03:39:21;101003.75;;;24.85;67.77
42169;BME280;27838;43.858;25.974;2023-07-08T03:41:49;101017.78;;;24.88;68.08
42169;BME280;27838;43.858;25.974;2023-07-08T03:44:16;101019.47;;;24.90;68.92
42169;BME280;27838;43.858;25.974;2023-07-08T03:46:44;101020.16;;;24.93;68.66
42169;BME280;27838;43.858;25.974;2023-07-08T03:49:12;101024.31;;;24.99;67.34
42169;BME280;27838;43.858;25.974;2023-07-08T03:51:40;101025.69;;;25.06;67.76
42169;BME280;27838;43.858;25.974;2023-07-08T03:54:15;101016.81;;;25.05;67.09
42169;BME280;27838;43.858;25.974;2023-07-08T03:56:41;101027.22;;;25.10;66.94
42169;BME280;27838;43.858;25.974;2023-07-08T03:59:09;101022.75;;;25.11;67.06
42169;BME280;27838;43.858;25.974;2023-07-08T04:01:36;101019.47;;;25.05;67.23
42169;BME280;27838;43.858;25.974;2023-07-08T04:04:08;101026.53;;;25.06;67.40
42169;BME280;27838;43.858;25.974;2023-07-08T04:06:35;101020.59;;;25.01;67.69
42169;BME280;27838;43.858;25.974;2023-07-08T04:09:02;101029.19;;;25.06;67.67
42169;BME280;27838;43.858;25.974;2023-07-08T04:11:28;101022.06;;;25.07;67.31
42169;BME280;27838;43.858;25.974;2023-07-08T04:13:55;101021.97;;;25.09;67.04
42169;BME280;27838;43.858;25.974;2023-07-08T04:19:07;101020.28;;;25.08;67.20
42169;BME280;27838;43.858;25.974;2023-07-08T04:21:39;101025.78;;;25.04;67.76
42169;BME280;27838;43.858;25.974;2023-07-08T04:24:09;101015.25;;;25.01;67.76
42169;BME280;27838;43.858;25.974;2023-07-08T04:26:37;101006.06;;;24.91;67.59
42169;BME280;27838;43.858;25.974;2023-07-08T04:29:19;101015.25;;;25.01;67.81
42169;BME280;27838;43.858;25.974;2023-07-08T04:31:46;101016.41;;;24.97;67.48
42169;BME280;27838;43.858;25.974;2023-07-08T04:34:14;101018.97;;;24.99;67.10
42169;BME280;27838;43.858;25.974;2023-07-08T04:36:41;101026.88;;;25.00;67.46
42169;BME280;27838;43.858;25.974;2023-07-08T04:39:09;101030.50;;;24.99;67.46
42169;BME280;27838;43.858;25.974;2023-07-08T04:41:36;101034.78;;;25.02;67.49
42169;BME280;27838;43.858;25.974;2023-07-08T04:44:10;101034.97;;;24.99;68.19
42169;BME280;27838;43.858;25.974;2023-07-08T04:46:39;101032.88;;;25.04;68.16
42169;BME280;27838;43.858;25.974;2023-07-08T04:49:07;101041.41;;;25.11;67.57
42169;BME280;27838;43.858;25.974;2023-07-08T04:51:36;101045.81;;;25.12;68.34
42169;BME280;27838;43.858;25.974;2023-07-08T04:54:03;101038.41;;;25.17;67.61
42169;BME280;27838;43.858;25.974;2023-07-08T04:56:43;101051.59;;;25.20;67.20
42169;BME280;27838;43.858;25.974;2023-07-08T04:59:11;101056.81;;;25.21;67.04
42169;BME280;27838;43.858;25.974;2023-07-08T05:01:38;101057.94;;;25.17;67.21
42169;BME280;27838;43.858;25.974;2023-07-08T05:04:06;101076.34;;;25.22;67.20
42169;BME280;27838;43.858;25.974;2023-07-08T05:06:34;101078.06;;;25.23;67.03
42169;BME280;27838;43.858;25.974;2023-07-08T05:09:02;101077.38;;;25.19;68.02
42169;BME280;27838;43.858;25.974;2023-07-08T05:11:29;101071.97;;;25.21;67.59
42169;BME280;27838;43.858;25.974;2023-07-08T05:13:56;101084.28;;;25.23;67.05
42169;BME280;27838;43.858;25.974;2023-07-08T05:16:23;101079.03;;;25.22;67.22
42169;BME280;27838;43.858;25.974;2023-07-08T05:18:49;101070.41;;;25.17;67.46
42169;BME280;27838;43.858;25.974;2023-07-08T05:21:18;101087.97;;;25.21;67.36
42169;BME280;27838;43.858;25.974;2023-07-08T05:23:46;101080.72;;;25.23;67.86
42169;BME280;27838;43.858;25.974;2023-07-08T05:26:15;101089.78;;;25.20;68.01
42169;BME280;27838;43.858;25.974;2023-07-08T05:28:41;101086.50;;;25.15;68.34
42169;BME280;27838;43.858;25.974;2023-07-08T05:31:08;101082.97;;;25.15;69.32
42169;BME280;27838;43.858;25.974;2023-07-08T05:33:35;101093.28;;;25.21;69.78
42169;BME280;27838;43.858;25.974;2023-07-08T05:36:02;101100.22;;;25.25;69.67
42169;BME280;27838;43.858;25.974;2023-07-08T05:38:28;101094.94;;;25.23;69.34
42169;BME280;27838;43.858;25.974;2023-07-08T05:40:57;101095.59;;;25.29;69.58
42169;BME280;27838;43.858;25.974;2023-07-08T05:43:25;101090.94;;;25.32;69.44
42169;BME280;27838;43.858;25.974;2023-07-08T05:45:57;101090.56;;;25.38;69.15
42169;BME280;27838;43.858;25.974;2023-07-08T05:48:25;101094.00;;;25.40;69.27
42169;BME280;27838;43.858;25.974;2023-07-08T05:50:51;101106.88;;;25.34;69.30
42169;BME280;27838;43.858;25.974;2023-07-08T05:53:18;101123.63;;;25.36;69.74
42169;BME280;27838;43.858;25.974;2023-07-08T05:55:47;101125.34;;;25.37;69.82
42169;BME280;27838;43.858;25.974;2023-07-08T05:58:14;101125.63;;;25.32;69.65
42169;BME280;27838;43.858;25.974;2023-07-08T06:00:42;101119.97;;;25.21;70.11
42169;BME280;27838;43.858;25.974;2023-07-08T06:03:09;101130.81;;;25.18;70.89
42169;BME280;27838;43.858;25.974;2023-07-08T06:05:37;101134.84;;;25.09;70.21
42169;BME280;27838;43.858;25.974;2023-07-08T06:08:05;101135.75;;;24.92;71.31
42169;BME280;27838;43.858;25.974;2023-07-08T06:10:32;101141.41;;;24.86;71.97
42169;BME280;27838;43.858;25.974;2023-07-08T06:12:59;101141.69;;;24.81;72.38
42169;BME280;27838;43.858;25.974;2023-07-08T06:15:25;101150.84;;;24.76;71.88
42169;BME280;27838;43.858;25.974;2023-07-08T06:17:52;101151.19;;;24.69;72.26
42169;BME280;27838;43.858;25.974;2023-07-08T06:20:18;101157.69;;;24.64;73.22
42169;BME280;27838;43.858;25.974;2023-07-08T06:22:45;101148.91;;;24.62;74.00
42169;BME280;27838;43.858;25.974;2023-07-08T06:25:11;101151.63;;;24.60;74.23
42169;BME280;27838;43.858;25.974;2023-07-08T06:27:38;101147.03;;;24.64;74.49
42169;BME280;27838;43.858;25.974;2023-07-08T06:30:05;101137.06;;;24.67;75.10
42169;BME280;27838;43.858;25.974;2023-07-08T06:32:32;101127.63;;;24.78;75.15
42169;BME280;27838;43.858;25.974;2023-07-08T06:34:58;101122.13;;;24.81;74.40
42169;BME280;27838;43.858;25.974;2023-07-08T06:37:25;101111.63;;;24.78;74.14
42169;BME280;27838;43.858;25.974;2023-07-08T06:39:51;101122.44;;;24.92;74.39
42169;BME280;27838;43.858;25.974;2023-07-08T06:42:18;101113.31;;;24.96;74.25
42169;BME280;27838;43.858;25.974;2023-07-08T06:44:44;101115.13;;;24.96;74.93
42169;BME280;27838;43.858;25.974;2023-07-08T06:47:19;101119.25;;;25.01;75.38
42169;BME280;27838;43.858;25.974;2023-07-08T06:49:47;101120.72;;;25.07;75.01
42169;BME280;27838;43.858;25.974;2023-07-08T06:52:14;101126.94;;;25.08;74.77
42169;BME280;27838;43.858;25.974;2023-07-08T06:54:41;101112.38;;;24.97;74.16
42169;BME280;27838;43.858;25.974;2023-07-08T06:57:07;101124.09;;;25.11;74.05
42169;BME280;27838;43.858;25.974;2023-07-08T06:59:34;101131.75;;;25.17;74.59
42169;BME280;27838;43.858;25.974;2023-07-08T07:02:01;101126.00;;;25.24;74.33
42169;BME280;27838;43.858;25.974;2023-07-08T07:04:28;101125.31;;;25.21;73.70
42169;BME280;27838;43.858;25.974;2023-07-08T07:06:56;101127.97;;;25.21;73.94
42169;BME280;27838;43.858;25.974;2023-07-08T07:09:22;101124.28;;;25.23;74.03
42169;BME280;27838;43.858;25.974;2023-07-08T07:11:49;101137.59;;;25.25;73.21
42169;BME280;27838;43.858;25.974;2023-07-08T07:14:15;101123.84;;;25.15;74.25
42169;BME280;27838;43.858;25.974;2023-07-08T07:16:42;101139.34;;;25.24;74.66
42169;BME280;27838;43.858;25.974;2023-07-08T07:19:08;101139.88;;;25.31;75.29
42169;BME280;27838;43.858;25.974;2023-07-08T07:21:35;101133.16;;;25.24;74.98
42169;BME280;27838;43.858;25.974;2023-07-08T07:24:04;101152.38;;;25.31;75.20
42169;BME280;27838;43.858;25.974;2023-07-08T07:26:32;101147.13;;;25.29;75.26
42169;BME280;27838;43.858;25.974;2023-07-08T07:29:02;101125.66;;;25.15;75.06
42169;BME280;27838;43.858;25.974;2023-07-08T07:31:29;101150.66;;;25.30;74.18
42169;BME280;27838;43.858;25.974;2023-07-08T07:33:58;101155.66;;;25.36;73.40
42169;BME280;27838;43.858;25.974;2023-07-08T07:36:26;101151.50;;;25.30;74.20
42169;BME280;27838;43.858;25.974;2023-07-08T07:38:52;101152.03;;;25.37;73.76
42169;BME280;27838;43.858;25.974;2023-07-08T07:41:19;101159.69;;;25.43;73.87
42169;BME280;27838;43.858;25.974;2023-07-08T07:43:45;101150.13;;;25.39;72.89
42169;BME280;27838;43.858;25.974;2023-07-08T07:46:12;101148.59;;;25.35;72.90
42169;BME280;27838;43.858;25.974;2023-07-08T07:48:39;101152.72;;;25.40;73.15
42169;BME280;27838;43.858;25.974;2023-07-08T07:51:06;101154.81;;;25.51;72.43
42169;BME280;27838;43.858;25.974;2023-07-08T07:53:38;101155.50;;;25.55;69.82
42169;BME280;27838;43.858;25.974;2023-07-08T07:56:05;101147.03;;;25.62;68.86
42169;BME280;27838;43.858;25.974;2023-07-08T07:58:32;101143.25;;;25.67;69.27
42169;BME280;27838;43.858;25.974;2023-07-08T08:00:59;101139.47;;;25.71;69.46
42169;BME280;27838;43.858;25.974;2023-07-08T08:03:26;101132.31;;;25.71;69.54
42169;BME280;27838;43.858;25.974;2023-07-08T08:05:52;101135.84;;;25.72;69.14
42169;BME280;27838;43.858;25.974;2023-07-08T08:08:19;101135.84;;;25.72;69.79
42169;BME280;27838;43.858;25.974;2023-07-08T08:10:47;101141.69;;;25.78;70.43
42169;BME280;27838;43.858;25.974;2023-07-08T08:13:14;101139.03;;;25.78;69.74
42169;BME280;27838;43.858;25.974;2023-07-08T08:15:41;101136.72;;;25.72;70.50
42169;BME280;27838;43.858;25.974;2023-07-08T08:18:07;101127.91;;;25.70;70.33
42169;BME280;27838;43.858;25.974;2023-07-08T08:20:34;101133.44;;;25.67;69.87
42169;BME280;27838;43.858;25.974;2023-07-08T08:23:00;101138.94;;;25.64;69.51
42169;BME280;27838;43.858;25.974;2023-07-08T08:25:27;101147.28;;;25.58;69.68
42169;BME280;27838;43.858;25.974;2023-07-08T08:27:53;101155.97;;;25.61;70.87
42169;BME280;27838;43.858;25.974;2023-07-08T08:30:20;101152.63;;;25.58;71.10
42169;BME280;27838;43.858;25.974;2023-07-08T08:32:46;101150.75;;;25.60;70.98
42169;BME280;27838;43.858;25.974;2023-07-08T08:35:13;101141.78;;;25.61;70.82
42169;BME280;27838;43.858;25.974;2023-07-08T08:37:39;101150.47;;;25.65;71.20
42169;BME280;27838;43.858;25.974;2023-07-08T08:40:11;101150.84;;;25.74;70.80
42169;BME280;27838;43.858;25.974;2023-07-08T08:42:41;101152.81;;;25.87;69.29
42169;BME280;27838;43.858;25.974;2023-07-08T08:45:17;101159.59;;;25.92;69.18
42169;BME280;27838;43.858;25.974;2023-07-08T08:47:49;101161.31;;;25.93;68.41
42169;BME280;27838;43.858;25.974;2023-07-08T08:50:44;101168.44;;;25.93;68.71
42169;BME280;27838;43.858;25.974;2023-07-08T08:53:13;101175.69;;;25.91;68.68
42169;BME280;27838;43.858;25.974;2023-07-08T08:55:42;101175.00;;;25.87;68.51
42169;BME280;27838;43.858;25.974;2023-07-08T08:58:33;101172.72;;;25.81;68.16
42169;BME280;27838;43.858;25.974;2023-07-08T09:01:08;101166.84;;;25.74;66.03
42169;BME280;27838;43.858;25.974;2023-07-08T09:03:57;101170.81;;;25.83;65.57
42169;BME280;27838;43.858;25.974;2023-07-08T09:06:31;101173.75;;;25.94;66.52
42169;BME280;27838;43.858;25.974;2023-07-08T09:09:27;101163.41;;;26.04;66.87
42169;BME280;27838;43.858;25.974;2023-07-08T09:12:03;101161.72;;;26.17;65.45
42169;BME280;27838;43.858;25.974;2023-07-08T09:14:33;101156.78;;;26.26;64.95
42169;BME280;27838;43.858;25.974;2023-07-08T09:25:31;101158.84;;;26.81;60.06
42169;BME280;27838;43.858;25.974;2023-07-08T09:27:58;101158.66;;;26.99;61.27
42169;BME280;27838;43.858;25.974;2023-07-08T09:30:25;101158.16;;;27.06;60.53
42169;BME280;27838;43.858;25.974;2023-07-08T09:32:54;101141.44;;;27.03;60.22
42169;BME280;27838;43.858;25.974;2023-07-08T09:35:25;101160.94;;;27.19;59.33
42169;BME280;27838;43.858;25.974;2023-07-08T09:37:52;101155.38;;;27.22;58.88
42169;BME280;27838;43.858;25.974;2023-07-08T09:40:23;101153.59;;;27.23;56.79
42169;BME280;27838;43.858;25.974;2023-07-08T09:43:00;101156.72;;;27.15;58.65
42169;BME280;27838;43.858;25.974;2023-07-08T09:45:29;101158.19;;;27.21;58.57
42169;BME280;27838;43.858;25.974;2023-07-08T09:48:16;101155.09;;;27.27;58.92
42169;BME280;27838;43.858;25.974;2023-07-08T09:50:43;101158.66;;;27.27;58.39
42169;BME280;27838;43.858;25.974;2023-07-08T09:53:14;101152.53;;;27.25;56.56
42169;BME280;27838;43.858;25.974;2023-07-08T09:55:40;101148.25;;;27.23;58.42
42169;BME280;27838;43.858;25.974;2023-07-08T09:58:13;101149.94;;;27.24;57.11
42169;BME280;27838;43.858;25.974;2023-07-08T10:00:42;101154.44;;;27.23;55.83
42169;BME280;27838;43.858;25.974;2023-07-08T10:03:17;101155.50;;;27.21;55.75
42169;BME280;27838;43.858;25.974;2023-07-08T10:05:47;101149.00;;;27.25;57.01
42169;BME280;27838;43.858;25.974;2023-07-08T10:08:20;101144.41;;;27.27;56.18
42169;BME280;27838;43.858;25.974;2023-07-08T10:10:52;101137.31;;;27.26;56.03
42169;BME280;27838;43.858;25.974;2023-07-08T10:13:26;101126.59;;;27.26;57.41
42169;BME280;27838;43.858;25.974;2023-07-08T10:16:15;101140.41;;;27.34;57.24
42169;BME280;27838;43.858;25.974;2023-07-08T10:18:43;101127.69;;;27.38;57.01
42169;BME280;27838;43.858;25.974;2023-07-08T10:21:40;101134.25;;;27.46;56.24
42169;BME280;27838;43.858;25.974;2023-07-08T10:30:11;101118.09;;;27.48;56.06
42169;BME280;27838;43.858;25.974;2023-07-08T10:32:48;101119.72;;;27.50;56.92
42169;BME280;27838;43.858;25.974;2023-07-08T11:05:37;101069.78;;;28.17;55.24
42169;BME280;27838;43.858;25.974;2023-07-08T11:08:16;101070.47;;;28.33;55.20
42169;BME280;27838;43.858;25.974;2023-07-08T11:10:59;101072.53;;;28.55;55.15
42169;BME280;27838;43.858;25.974;2023-07-08T11:13:29;101076.69;;;28.72;53.20
42169;BME280;27838;43.858;25.974;2023-07-08T11:16:02;101078.28;;;28.88;52.66
42169;BME280;27838;43.858;25.974;2023-07-08T11:19:07;101077.88;;;28.81;51.84
42169;BME280;27838;43.858;25.974;2023-07-08T11:21:49;101075.09;;;28.70;50.48
42169;BME280;27838;43.858;25.974;2023-07-08T11:24:45;101087.88;;;28.66;50.04
42169;BME280;27838;43.858;25.974;2023-07-08T11:30:14;101069.91;;;28.79;50.86
42169;BME280;27838;43.858;25.974;2023-07-08T11:32:44;101070.34;;;28.86;48.79
42169;BME280;27838;43.858;25.974;2023-07-08T11:35:42;101065.06;;;28.97;49.77
42169;BME280;27838;43.858;25.974;2023-07-08T11:38:13;101064.44;;;28.94;48.01
42169;BME280;27838;43.858;25.974;2023-07-08T11:43:26;101066.28;;;28.80;50.66
42169;BME280;27838;43.858;25.974;2023-07-08T11:45:54;101064.13;;;28.86;50.58
42169;BME280;27838;43.858;25.974;2023-07-08T11:48:38;101064.34;;;28.83;49.07
42169;BME280;27838;43.858;25.974;2023-07-08T11:51:09;101062.88;;;28.78;49.63
42169;BME280;27838;43.858;25.974;2023-07-08T11:53:46;101075.63;;;28.75;50.14
42169;BME280;27838;43.858;25.974;2023-07-08T12:01:38;101085.63;;;28.73;49.47
42169;BME280;27838;43.858;25.974;2023-07-08T12:11:47;101079.59;;;28.82;44.85
42169;BME280;27838;43.858;25.974;2023-07-08T12:14:16;101078.50;;;28.85;42.64
42169;BME280;27838;43.858;25.974;2023-07-08T12:16:42;101080.53;;;28.94;41.52
42169;BME280;27838;43.858;25.974;2023-07-08T12:19:13;101079.56;;;28.95;41.68
42169;BME280;27838;43.858;25.974;2023-07-08T12:21:42;101079.91;;;28.90;41.21
42169;BME280;27838;43.858;25.974;2023-07-08T12:24:13;101089.78;;;28.77;41.30
42169;BME280;27838;43.858;25.974;2023-07-08T12:26:41;101097.00;;;28.76;40.36
42169;BME280;27838;43.858;25.974;2023-07-08T12:29:11;101093.97;;;28.68;40.63
42169;BME280;27838;43.858;25.974;2023-07-08T12:31:39;101092.16;;;28.56;40.11
42169;BME280;27838;43.858;25.974;2023-07-08T12:34:14;101094.38;;;28.49;40.28
42169;BME280;27838;43.858;25.974;2023-07-08T12:36:43;101085.06;;;28.55;40.00
42169;BME280;27838;43.858;25.974;2023-07-08T12:39:13;101094.50;;;28.60;40.14
42169;BME280;27838;43.858;25.974;2023-07-08T12:41:42;101088.50;;;28.57;39.53
42169;BME280;27838;43.858;25.974;2023-07-08T12:44:27;101085.06;;;28.55;39.66
42169;BME280;27838;43.858;25.974;2023-07-08T12:46:54;101088.41;;;28.58;39.33
42169;BME280;27838;43.858;25.974;2023-07-08T12:49:21;101088.09;;;28.63;40.15
42169;BME280;27838;43.858;25.974;2023-07-08T12:51:52;101079.28;;;28.74;39.12
42169;BME280;27838;43.858;25.974;2023-07-08T12:54:18;101077.53;;;28.86;39.35
42169;BME280;27838;43.858;25.974;2023-07-08T12:56:46;101079.66;;;28.93;38.06
42169;BME280;27838;43.858;25.974;2023-07-08T12:59:22;101082.25;;;28.95;37.54
42169;BME280;27838;43.858;25.974;2023-07-08T13:01:50;101080.09;;;29.00;38.40
42169;BME280;27838;43.858;25.974;2023-07-08T13:04:18;101085.03;;;29.06;38.60
42169;BME280;27838;43.858;25.974;2023-07-08T13:06:46;101068.91;;;29.06;37.58
42169;BME280;27838;43.858;25.974;2023-07-08T13:09:40;101071.94;;;29.02;37.02
42169;BME280;27838;43.858;25.974;2023-07-08T13:12:17;101071.28;;;28.98;37.42
42169;BME280;27838;43.858;25.974;2023-07-08T13:14:48;101069.81;;;28.94;37.49
42169;BME280;27838;43.858;25.974;2023-07-08T13:17:15;101065.72;;;28.88;37.82
42169;BME280;27838;43.858;25.974;2023-07-08T13:19:43;101072.19;;;28.86;38.03
42169;BME280;27838;43.858;25.974;2023-07-08T13:22:18;101085.59;;;28.86;38.22
42169;BME280;27838;43.858;25.974;2023-07-08T13:24:46;101078.59;;;28.83;38.25
42169;BME280;27838;43.858;25.974;2023-07-08T13:27:22;101071.53;;;28.82;37.80
42169;BME280;27838;43.858;25.974;2023-07-08T13:29:51;101073.13;;;28.85;37.46
42169;BME280;27838;43.858;25.974;2023-07-08T13:32:18;101074.34;;;28.80;37.59
42169;BME280;27838;43.858;25.974;2023-07-08T13:34:48;101086.91;;;28.80;38.25
42169;BME280;27838;43.858;25.974;2023-07-08T13:37:15;101075.91;;;28.83;38.75
42169;BME280;27838;43.858;25.974;2023-07-08T13:39:46;101074.34;;;28.80;38.07
42169;BME280;27838;43.858;25.974;2023-07-08T13:42:13;101079.28;;;28.74;37.91
42169;BME280;27838;43.858;25.974;2023-07-08T13:44:44;101082.69;;;28.76;38.06
42169;BME280;27838;43.858;25.974;2023-07-08T13:47:25;101077.56;;;28.73;38.05
42169;BME280;27838;43.858;25.974;2023-07-08T13:49:57;101069.84;;;28.68;37.61
42169;BME280;27838;43.858;25.974;2023-07-08T13:52:26;101073.16;;;28.72;37.89
42169;BME280;27838;43.858;25.974;2023-07-08T13:54:58;101073.06;;;28.73;37.67
42169;BME280;27838;43.858;25.974;2023-07-08T13:57:37;101068.00;;;28.69;36.61
42169;BME280;27838;43.858;25.974;2023-07-08T14:00:05;101070.69;;;28.69;36.14
42169;BME280;27838;43.858;25.974;2023-07-08T14:02:33;101067.16;;;28.68;36.68
42169;BME280;27838;43.858;25.974;2023-07-08T14:05:00;101067.16;;;28.68;36.61
42169;BME280;27838;43.858;25.974;2023-07-08T14:07:31;101073.25;;;28.70;36.16